createdAt,value
2023-04-13T00:02:18.207Z,4.44
2023-04-13T00:04:48.920Z,4.29
2023-04-13T00:07:22.700Z,4.28
2023-04-13T00:09:54.110Z,4.37
2023-04-13T00:12:29.309Z,4.31
2023-04-13T00:14:58.820Z,4.33
2023-04-13T00:17:28.271Z,4.15
2023-04-13T00:20:03.499Z,4.10
2023-04-13T00:22:33.065Z,4.08
2023-04-13T00:25:02.985Z,4.10
2023-04-13T00:27:32.233Z,4.06
2023-04-13T00:30:02.719Z,4.00
2023-04-13T00:32:31.894Z,4.11
2023-04-13T00:35:02.379Z,4.03
2023-04-13T00:37:32.824Z,3.91
2023-04-13T00:40:04.456Z,3.94
2023-04-13T00:42:36.637Z,3.93
2023-04-13T00:45:08.264Z,3.89
2023-04-13T00:47:42.615Z,3.82
2023-04-13T00:50:11.777Z,3.82
2023-04-13T00:52:43.094Z,3.77
2023-04-13T00:55:14.946Z,3.77
2023-04-13T00:57:51.243Z,3.75
2023-04-13T01:00:22.003Z,3.74
2023-04-13T01:02:55.340Z,3.68
2023-04-13T01:05:29.063Z,3.59
2023-04-13T01:08:18.757Z,3.55
2023-04-13T01:11:09.916Z,3.49
2023-04-13T01:13:45.858Z,3.51
2023-04-13T01:16:20.831Z,3.45
2023-04-13T01:42:49.865Z,2.95
2023-04-13T01:45:28.891Z,2.88
2023-04-13T01:48:20.075Z,2.94
2023-04-13T01:50:54.916Z,2.99
2023-04-13T01:53:33.338Z,2.83
2023-04-13T01:56:05.401Z,2.83
2023-04-13T01:58:36.295Z,2.76
2023-04-13T02:01:10.053Z,2.76
2023-04-13T02:03:43.752Z,2.69
2023-04-13T02:06:13.165Z,2.67
2023-04-13T02:08:42.546Z,2.62
2023-04-13T02:11:15.077Z,2.63
2023-04-13T02:13:45.539Z,2.63
2023-04-13T02:16:16.004Z,2.65
2023-04-13T02:18:45.164Z,2.64
2023-04-13T02:21:20.026Z,2.69
2023-04-13T02:23:51.527Z,2.65
2023-04-13T02:26:23.502Z,2.57
2023-04-13T02:28:54.668Z,2.60
2023-04-13T02:31:23.986Z,2.68
2023-04-13T02:33:53.021Z,2.59
2023-04-13T02:36:25.150Z,2.53
2023-04-13T02:38:54.928Z,2.48
2023-04-13T02:41:25.572Z,2.52
2023-04-13T02:43:57.795Z,2.52
2023-04-13T02:46:29.362Z,2.57
2023-04-13T02:49:00.712Z,2.60
2023-04-13T02:51:29.800Z,2.53
2023-04-13T02:54:00.691Z,2.52
2023-04-13T02:56:35.201Z,2.52
2023-04-13T02:59:04.277Z,2.59
2023-04-13T03:01:33.304Z,2.69
2023-04-13T03:04:04.152Z,2.62
2023-04-13T03:06:44.670Z,2.57
2023-04-13T03:09:15.824Z,2.57
2023-04-13T03:11:46.348Z,2.62
2023-04-13T03:14:24.154Z,2.68
2023-04-13T03:16:54.568Z,2.53
2023-04-13T03:23:05.375Z,2.68
2023-04-13T03:25:34.534Z,2.64
2023-04-13T03:28:03.547Z,2.78
2023-04-13T03:30:34.014Z,2.75
2023-04-13T03:33:03.126Z,2.72
2023-04-13T03:35:32.142Z,2.72
2023-04-13T03:38:01.370Z,2.72
2023-04-13T03:40:30.422Z,2.72
2023-04-13T03:42:59.432Z,2.74
2023-04-13T03:45:37.316Z,2.68
2023-04-13T03:48:11.985Z,2.67
2023-04-13T03:50:44.860Z,2.62
2023-04-13T03:53:15.135Z,2.65
2023-04-13T03:55:48.414Z,2.64
2023-04-13T03:58:17.384Z,2.56
2023-04-13T04:00:49.901Z,2.65
2023-04-13T04:03:19.557Z,2.55
2023-04-13T04:05:48.879Z,2.63
2023-04-13T04:08:19.406Z,2.64
2023-04-13T04:11:00.605Z,2.74
2023-04-13T04:13:32.895Z,2.69
2023-04-13T04:16:03.741Z,2.59
2023-04-13T04:18:33.066Z,2.72
2023-04-13T04:21:07.181Z,2.81
2023-04-13T04:23:37.834Z,3.00
2023-04-13T04:26:07.757Z,3.10
2023-04-13T04:28:39.475Z,3.11
2023-04-13T04:31:14.259Z,3.11
2023-04-13T04:33:43.742Z,3.22
2023-04-13T04:36:14.438Z,3.25
2023-04-13T04:38:48.351Z,3.34
2023-04-13T04:41:18.919Z,3.40
2023-04-13T04:43:52.492Z,3.50
2023-04-13T04:46:25.323Z,3.98
2023-04-13T04:48:57.904Z,4.36
2023-04-13T05:00:46.691Z,4.16
2023-04-13T05:06:33.690Z,4.38
2023-04-13T05:09:26.395Z,4.66
2023-04-13T05:11:41.717Z,4.70
2023-04-13T05:14:13.881Z,4.81
2023-04-13T05:16:47.004Z,4.93
2023-04-13T05:19:16.585Z,5.04
2023-04-13T05:21:47.336Z,5.14
2023-04-13T05:24:16.458Z,5.27
2023-04-13T05:26:46.758Z,5.33
2023-04-13T05:29:15.659Z,5.42
2023-04-13T05:31:46.276Z,5.20
2023-04-13T05:34:17.020Z,5.65
2023-04-13T05:37:06.388Z,5.67
2023-04-13T05:39:39.279Z,5.74
2023-04-13T05:42:08.519Z,5.80
2023-04-13T05:44:37.660Z,5.93
2023-04-13T05:47:06.737Z,5.98
2023-04-13T05:49:35.832Z,6.10
2023-04-13T05:52:06.397Z,6.37
2023-04-13T05:54:35.826Z,6.42
2023-04-13T05:57:08.164Z,6.48
2023-04-13T05:59:40.087Z,6.55
2023-04-13T06:02:09.632Z,6.64
2023-04-13T06:04:39.142Z,6.58
2023-04-13T06:07:08.614Z,6.79
2023-04-13T06:09:39.686Z,6.45
2023-04-13T06:12:09.472Z,6.95
2023-04-13T06:14:38.918Z,7.16
2023-04-13T06:17:07.671Z,7.18
2023-04-13T06:19:42.644Z,7.35
2023-04-13T06:22:13.292Z,7.42
2023-04-13T06:31:15.240Z,7.81
2023-04-13T06:33:50.231Z,7.73
2023-04-13T06:39:34.343Z,7.81
2023-04-13T06:42:23.963Z,7.99
2023-04-13T06:54:36.332Z,8.31
2023-04-13T06:57:19.255Z,8.15
2023-04-13T07:09:36.920Z,8.73
2023-04-13T07:18:19.295Z,9.63
2023-04-13T07:27:54.357Z,10.06
2023-04-13T07:37:28.210Z,10.57
2023-04-13T08:21:16.337Z,11.26
2023-04-13T08:45:21.000Z,13.50
2023-04-13T08:47:59.316Z,13.36
2023-04-13T08:57:33.955Z,13.35
2023-04-13T09:00:09.322Z,13.78
2023-04-13T09:06:25.940Z,14.10
2023-04-13T09:08:59.679Z,14.37
2023-04-13T09:11:33.012Z,14.73
2023-04-13T09:14:11.454Z,14.45
2023-04-13T09:16:42.944Z,14.76
2023-04-13T09:22:14.709Z,15.07
2023-04-13T09:24:44.297Z,14.94
2023-04-13T09:27:22.007Z,15.14
2023-04-13T09:29:59.276Z,15.12
2023-04-13T09:32:29.431Z,15.26
2023-04-13T09:35:07.000Z,15.03
2023-04-13T09:44:06.722Z,15.12
2023-04-13T09:46:35.460Z,15.54
2023-04-13T09:49:06.303Z,15.76
2023-04-13T09:51:42.011Z,15.82
2023-04-13T09:54:12.793Z,15.78
2023-04-13T09:56:51.207Z,15.66
2023-04-13T09:59:30.444Z,15.86
2023-04-13T10:02:07.910Z,16.02
2023-04-13T10:04:36.705Z,15.98
2023-04-13T10:08:03.535Z,16.12
2023-04-13T10:09:47.887Z,16.28
2023-04-13T10:12:18.351Z,16.38
2023-04-13T10:14:49.297Z,16.25
2023-04-13T10:17:39.071Z,16.37
2023-04-13T10:20:13.810Z,16.25
2023-04-13T10:22:45.789Z,16.50
2023-04-13T10:25:29.630Z,16.88
2023-04-13T10:27:47.918Z,17.13
2023-04-13T10:30:19.906Z,17.19
2023-04-13T10:32:48.624Z,17.21
2023-04-13T10:35:18.367Z,17.37
2023-04-13T10:37:51.744Z,17.17
2023-04-13T10:44:13.543Z,17.27
2023-04-13T10:53:10.921Z,16.63
2023-04-13T10:55:44.300Z,16.39
2023-04-13T10:58:21.454Z,16.71
2023-04-13T11:00:57.740Z,16.90
2023-04-13T11:06:28.349Z,17.28
2023-04-13T11:09:07.938Z,17.44
2023-04-13T11:15:40.427Z,17.79
2023-04-13T11:18:14.059Z,18.00
2023-04-13T11:20:46.631Z,18.03
2023-04-13T11:23:17.802Z,17.82
2023-04-13T11:26:02.349Z,17.92
2023-04-13T11:29:12.762Z,18.19
2023-04-13T11:31:48.632Z,18.42
2023-04-13T11:38:40.461Z,18.56
2023-04-13T11:41:28.320Z,18.50
2023-04-13T11:44:07.264Z,18.59
2023-04-13T11:46:46.971Z,18.41
2023-04-13T11:49:16.960Z,18.07
2023-04-13T12:02:19.610Z,18.62
2023-04-13T12:08:26.033Z,18.68
2023-04-13T12:11:39.057Z,19.08
2023-04-13T12:13:53.803Z,19.07
2023-04-13T12:28:41.094Z,18.99
2023-04-13T12:31:14.716Z,19.43
2023-04-13T12:33:51.061Z,19.58
2023-04-13T12:36:23.634Z,19.73
2023-04-13T12:38:53.865Z,19.61
2023-04-13T12:41:25.401Z,19.54
2023-04-13T12:44:00.436Z,19.82
2023-04-13T12:46:32.783Z,19.87
2023-04-13T12:49:02.259Z,19.89
2023-04-13T12:51:37.965Z,19.86
2023-04-13T12:54:09.998Z,19.54
2023-04-13T12:56:41.908Z,19.58
2023-04-13T12:59:13.622Z,19.66
2023-04-13T13:01:45.548Z,19.79
2023-04-13T13:04:14.635Z,20.02
2023-04-13T13:06:43.654Z,20.00
2023-04-13T13:09:12.705Z,20.13
2023-04-13T13:11:42.177Z,20.15
2023-04-13T13:14:14.646Z,20.34
2023-04-13T13:16:50.968Z,20.23
2023-04-13T13:19:24.849Z,20.35
2023-04-13T13:21:56.433Z,20.31
2023-04-13T13:24:26.965Z,20.48
2023-04-13T13:35:10.919Z,19.72
2023-04-13T13:37:42.829Z,19.93
2023-04-13T13:40:13.527Z,19.91
2023-04-13T13:42:52.304Z,19.90
2023-04-13T13:45:17.901Z,19.65
2023-04-13T13:47:53.805Z,19.75
2023-04-13T13:50:23.127Z,20.06
2023-04-13T14:07:59.210Z,20.32
2023-04-13T14:21:51.406Z,20.96
2023-04-13T14:41:28.734Z,22.08
2023-04-13T14:47:21.514Z,22.24
2023-04-13T14:52:50.881Z,22.36
2023-04-13T14:55:23.149Z,21.77
2023-04-13T15:01:14.545Z,21.52
2023-04-13T15:17:41.944Z,20.95
2023-04-13T15:39:34.883Z,21.11
2023-04-13T15:45:55.432Z,20.98
2023-04-13T15:49:09.809Z,20.69
2023-04-13T15:51:33.439Z,20.82
2023-04-13T15:54:37.342Z,21.77
2023-04-13T15:57:06.232Z,21.94
2023-04-13T15:59:38.026Z,23.28
2023-04-13T16:02:12.606Z,23.94
2023-04-13T16:04:43.745Z,24.03
2023-04-13T16:07:14.931Z,23.34
2023-04-13T16:09:55.773Z,23.04
2023-04-13T16:12:28.852Z,22.90
2023-04-13T16:14:59.609Z,23.06
2023-04-13T16:17:32.947Z,22.74
2023-04-13T16:20:23.775Z,22.55
2023-04-13T16:22:54.058Z,21.98
2023-04-13T16:25:33.578Z,21.61
2023-04-13T16:28:05.646Z,21.15
2023-04-13T16:30:34.849Z,20.63
2023-04-13T16:33:08.679Z,20.25
2023-04-13T16:35:39.750Z,19.97
2023-04-13T16:38:08.804Z,19.58
2023-04-13T16:40:41.762Z,19.26
2023-04-13T16:43:10.700Z,19.13
2023-04-13T16:45:44.644Z,18.94
2023-04-13T16:48:13.536Z,18.71
2023-04-13T16:50:42.222Z,18.55
2023-04-13T16:53:11.929Z,18.36
2023-04-13T16:55:41.980Z,18.12
2023-04-13T16:58:12.454Z,17.99
2023-04-13T17:00:41.072Z,17.81
2023-04-13T17:03:13.627Z,17.72
2023-04-13T17:05:42.898Z,17.52
2023-04-13T17:08:11.798Z,17.39
2023-04-13T17:10:46.824Z,17.19
2023-04-13T17:13:11.490Z,17.03
2023-04-13T17:15:40.652Z,16.94
2023-04-13T17:18:09.688Z,16.98
2023-04-13T17:20:40.049Z,16.88
2023-04-13T17:23:32.865Z,16.77
2023-04-13T17:26:17.206Z,16.70
2023-04-13T17:29:03.891Z,16.55
2023-04-13T17:31:31.919Z,16.50
2023-04-13T17:34:08.450Z,16.38
2023-04-13T17:36:41.748Z,16.24
2023-04-13T17:49:02.427Z,15.78
2023-04-13T17:54:40.933Z,15.60
2023-04-13T18:00:05.137Z,15.32
2023-04-13T18:02:40.119Z,15.21
2023-04-13T18:05:44.206Z,15.15
2023-04-13T18:08:08.905Z,15.25
2023-04-13T18:10:43.025Z,15.25
2023-04-13T18:13:13.860Z,15.14
2023-04-13T18:15:51.699Z,14.99
2023-04-13T18:21:50.868Z,14.78
2023-04-13T18:24:26.844Z,14.59
2023-04-13T18:26:55.351Z,14.57
2023-04-13T18:32:26.033Z,14.39
2023-04-13T18:38:05.408Z,14.26
2023-04-13T18:42:20.240Z,14.15
2023-04-13T18:43:41.988Z,14.11
2023-04-13T18:46:13.745Z,14.26
2023-04-13T18:48:42.819Z,14.29
2023-04-13T18:51:22.195Z,14.18
2023-04-13T18:53:51.030Z,14.06
2023-04-13T18:56:19.956Z,14.02
2023-04-13T19:06:05.735Z,13.89
2023-04-13T19:08:45.328Z,13.83
2023-04-13T19:14:40.154Z,13.86
2023-04-13T19:17:11.547Z,13.84
2023-04-13T19:19:48.324Z,13.69
2023-04-13T19:22:20.226Z,13.72
2023-04-13T19:24:49.429Z,13.67
2023-04-13T19:27:20.564Z,13.66
2023-04-13T19:29:53.666Z,13.73
2023-04-13T19:32:23.461Z,13.71
2023-04-13T19:34:56.571Z,13.54
2023-04-13T19:38:04.344Z,13.45
2023-04-13T19:40:54.332Z,13.41
2023-04-13T19:43:44.628Z,13.53
2023-04-13T19:46:04.486Z,13.46
2023-04-13T19:48:33.422Z,13.51
2023-04-13T19:51:03.380Z,13.49
2023-04-13T19:53:38.237Z,13.50
2023-04-13T19:56:07.362Z,13.47
2023-04-13T19:58:39.344Z,13.45
2023-04-13T20:01:12.172Z,13.45
2023-04-13T20:03:43.814Z,13.41
2023-04-13T20:06:25.295Z,13.32
2023-04-13T20:09:03.103Z,13.26
2023-04-13T20:11:32.021Z,13.19
2023-04-13T20:14:03.494Z,13.15
2023-04-13T20:16:34.467Z,13.18
2023-04-13T20:19:07.103Z,13.23
2023-04-13T20:21:38.581Z,13.35
2023-04-13T20:24:07.827Z,13.37
2023-04-13T20:26:36.833Z,13.43
2023-04-13T20:29:06.197Z,13.37
2023-04-13T20:31:36.892Z,13.25
2023-04-13T20:34:07.506Z,13.29
2023-04-13T20:36:36.538Z,13.29
2023-04-13T20:39:08.404Z,13.08
2023-04-13T20:41:39.151Z,13.02
2023-04-13T20:44:13.419Z,12.93
2023-04-13T20:46:45.938Z,12.74
2023-04-13T20:49:18.670Z,12.64
2023-04-13T20:51:59.334Z,12.52
2023-04-13T20:54:35.860Z,12.51
2023-04-13T20:57:25.606Z,12.52
2023-04-13T20:59:57.127Z,12.39
2023-04-13T21:02:26.332Z,12.29
2023-04-13T21:04:56.865Z,12.20
2023-04-13T21:07:25.940Z,12.22
2023-04-13T21:09:55.036Z,12.21
2023-04-13T21:12:26.675Z,12.17
2023-04-13T21:14:57.965Z,12.07
2023-04-13T21:17:27.481Z,11.99
2023-04-13T21:19:57.687Z,11.90
2023-04-13T21:22:28.073Z,11.81
2023-04-13T21:25:03.160Z,11.73
2023-04-13T21:27:36.876Z,11.63
2023-04-13T21:30:08.406Z,11.54
2023-04-13T21:32:41.839Z,11.50
2023-04-13T21:35:19.780Z,11.59
2023-04-13T21:37:53.073Z,11.48
2023-04-13T21:40:19.425Z,11.56
2023-04-13T21:42:51.127Z,11.53
2023-04-13T21:45:19.980Z,11.50
2023-04-13T21:47:50.398Z,11.46
2023-04-13T21:50:19.491Z,11.45
2023-04-13T21:52:48.823Z,11.42
2023-04-13T21:55:23.121Z,11.40
2023-04-13T21:57:52.056Z,11.35
2023-04-13T22:00:21.015Z,11.30
2023-04-13T22:02:53.546Z,11.18
2023-04-13T22:05:24.394Z,11.23
2023-04-13T22:07:53.345Z,11.14
2023-04-13T22:10:22.373Z,11.18
2023-04-13T22:12:51.567Z,11.04
2023-04-13T22:15:20.659Z,11.02
2023-04-13T22:17:49.893Z,11.02
2023-04-13T22:20:20.313Z,10.96
2023-04-13T22:22:49.169Z,10.91
2023-04-13T22:25:18.060Z,10.92
2023-04-13T22:27:46.900Z,10.84
2023-04-13T22:30:16.157Z,10.83
2023-04-13T22:32:45.491Z,10.92
2023-04-13T22:35:14.636Z,10.91
2023-04-13T22:37:43.615Z,10.87
2023-04-13T22:40:15.402Z,10.84
2023-04-13T22:42:44.785Z,10.76
2023-04-13T22:45:14.169Z,10.76
2023-04-13T22:47:43.331Z,10.62
2023-04-13T22:50:12.505Z,10.61
2023-04-13T22:52:42.432Z,10.67
2023-04-13T22:55:11.802Z,10.59
2023-04-13T22:57:42.295Z,10.53
2023-04-13T23:00:12.765Z,10.54
2023-04-13T23:02:43.085Z,10.52
2023-04-13T23:05:14.547Z,10.47
2023-04-13T23:07:42.701Z,10.64
2023-04-13T23:10:15.269Z,10.52
2023-04-13T23:12:46.890Z,10.52
2023-04-13T23:15:16.247Z,10.56
2023-04-13T23:17:45.341Z,10.55
2023-04-13T23:20:14.587Z,10.61
2023-04-13T23:22:43.524Z,10.49
2023-04-13T23:25:13.948Z,10.56
2023-04-13T23:27:45.633Z,10.57
2023-04-13T23:30:16.486Z,10.57
2023-04-13T23:36:37.657Z,10.47
2023-04-13T23:39:06.595Z,10.26
2023-04-13T23:41:36.107Z,10.41
2023-04-13T23:44:05.098Z,10.40
2023-04-13T23:46:34.273Z,10.39
2023-04-13T23:49:07.915Z,10.51
2023-04-13T23:51:36.839Z,10.50
2023-04-13T23:54:15.132Z,10.51
2023-04-13T23:56:45.695Z,10.48
2023-04-13T23:59:14.873Z,10.56
